sensor_id;sensor_type;location;lat;lon;timestamp;P1;durP1;ratioP1;P2;durP2;ratioP2
57790;SDS011;43621;51.798;21.588;2024-02-16T00:02:20;25.00;;;15.30;;
57790;SDS011;43621;51.798;21.588;2024-02-16T00:06:23;28.10;;;14.20;;
57790;SDS011;43621;51.798;21.588;2024-02-16T00:10:25;28.00;;;13.90;;
57790;SDS011;43621;51.798;21.588;2024-02-16T00:14:26;25.10;;;12.80;;
57790;SDS011;43621;51.798;21.588;2024-02-16T00:18:28;25.80;;;12.90;;
57790;SDS011;43621;51.798;21.588;2024-02-16T00:22:29;24.90;;;13.30;;
57790;SDS011;43621;51.798;21.588;2024-02-16T00:26:31;23.90;;;12.80;;
57790;SDS011;43621;51.798;21.588;2024-02-16T00:30:32;27.40;;;13.10;;
57790;SDS011;43621;51.798;21.588;2024-02-16T00:34:37;30.20;;;14.60;;
57790;SDS011;43621;51.798;21.588;2024-02-16T00:38:39;24.40;;;13.00;;
57790;SDS011;43621;51.798;21.588;2024-02-16T00:42:40;20.30;;;11.50;;
57790;SDS011;43621;51.798;21.588;2024-02-16T00:46:42;29.10;;;13.30;;
57790;SDS011;43621;51.798;21.588;2024-02-16T00:50:43;25.80;;;13.80;;
57790;SDS011;43621;51.798;21.588;2024-02-16T00:54:45;29.00;;;14.50;;
57790;SDS011;43621;51.798;21.588;2024-02-16T00:58:47;26.10;;;13.20;;
57790;SDS011;43621;51.798;21.588;2024-02-16T01:02:49;22.10;;;12.30;;
57790;SDS011;43621;51.798;21.588;2024-02-16T01:06:51;19.00;;;11.30;;
57790;SDS011;43621;51.798;21.588;2024-02-16T01:10:52;24.60;;;12.00;;
57790;SDS011;43621;51.798;21.588;2024-02-16T01:14:54;23.20;;;11.70;;
57790;SDS011;43621;51.798;21.588;2024-02-16T01:18:55;18.60;;;11.20;;
57790;SDS011;43621;51.798;21.588;2024-02-16T01:22:57;26.40;;;12.70;;
57790;SDS011;43621;51.798;21.588;2024-02-16T01:26:59;23.20;;;11.60;;
57790;SDS011;43621;51.798;21.588;2024-02-16T01:31:00;20.00;;;10.60;;
57790;SDS011;43621;51.798;21.588;2024-02-16T01:35:02;18.40;;;10.10;;
57790;SDS011;43621;51.798;21.588;2024-02-16T01:39:04;18.40;;;10.30;;
57790;SDS011;43621;51.798;21.588;2024-02-16T01:43:05;18.90;;;10.60;;
57790;SDS011;43621;51.798;21.588;2024-02-16T01:47:07;18.10;;;10.30;;
57790;SDS011;43621;51.798;21.588;2024-02-16T01:51:09;24.70;;;11.90;;
57790;SDS011;43621;51.798;21.588;2024-02-16T01:55:11;21.00;;;11.00;;
57790;SDS011;43621;51.798;21.588;2024-02-16T01:59:13;23.90;;;11.90;;
57790;SDS011;43621;51.798;21.588;2024-02-16T02:03:15;21.00;;;12.00;;
57790;SDS011;43621;51.798;21.588;2024-02-16T02:07:24;22.70;;;11.30;;
57790;SDS011;43621;51.798;21.588;2024-02-16T02:11:27;22.90;;;11.90;;
57790;SDS011;43621;51.798;21.588;2024-02-16T02:15:29;23.50;;;12.10;;
57790;SDS011;43621;51.798;21.588;2024-02-16T02:19:31;25.20;;;12.50;;
57790;SDS011;43621;51.798;21.588;2024-02-16T02:23:32;16.10;;;9.80;;
57790;SDS011;43621;51.798;21.588;2024-02-16T02:27:35;23.80;;;12.00;;
57790;SDS011;43621;51.798;21.588;2024-02-16T02:31:36;25.90;;;11.00;;
57790;SDS011;43621;51.798;21.588;2024-02-16T02:35:38;19.30;;;10.30;;
57790;SDS011;43621;51.798;21.588;2024-02-16T02:39:40;23.50;;;12.10;;
57790;SDS011;43621;51.798;21.588;2024-02-16T02:43:41;19.30;;;11.50;;
57790;SDS011;43621;51.798;21.588;2024-02-16T02:47:43;24.30;;;12.90;;
57790;SDS011;43621;51.798;21.588;2024-02-16T02:51:44;23.30;;;12.90;;
57790;SDS011;43621;51.798;21.588;2024-02-16T02:55:46;20.50;;;10.80;;
57790;SDS011;43621;51.798;21.588;2024-02-16T02:59:47;19.90;;;11.10;;
57790;SDS011;43621;51.798;21.588;2024-02-16T03:03:49;18.40;;;10.20;;
57790;SDS011;43621;51.798;21.588;2024-02-16T03:07:51;21.00;;;11.30;;
57790;SDS011;43621;51.798;21.588;2024-02-16T03:11:52;20.10;;;10.40;;
57790;SDS011;43621;51.798;21.588;2024-02-16T03:15:54;22.80;;;10.70;;
57790;SDS011;43621;51.798;21.588;2024-02-16T03:19:56;22.50;;;12.70;;
57790;SDS011;43621;51.798;21.588;2024-02-16T03:23:57;24.50;;;9.70;;
57790;SDS011;43621;51.798;21.588;2024-02-16T03:27:59;20.20;;;10.10;;
57790;SDS011;43621;51.798;21.588;2024-02-16T03:32:02;28.30;;;14.00;;
57790;SDS011;43621;51.798;21.588;2024-02-16T03:36:03;92.30;;;46.50;;
57790;SDS011;43621;51.798;21.588;2024-02-16T03:40:05;29.00;;;15.20;;
57790;SDS011;43621;51.798;21.588;2024-02-16T03:44:07;28.60;;;16.00;;
57790;SDS011;43621;51.798;21.588;2024-02-16T03:48:09;21.40;;;13.90;;
57790;SDS011;43621;51.798;21.588;2024-02-16T03:52:11;25.90;;;14.40;;
57790;SDS011;43621;51.798;21.588;2024-02-16T03:56:17;24.40;;;13.80;;
57790;SDS011;43621;51.798;21.588;2024-02-16T04:00:20;22.10;;;12.60;;
57790;SDS011;43621;51.798;21.588;2024-02-16T04:04:21;30.30;;;15.30;;
57790;SDS011;43621;51.798;21.588;2024-02-16T04:08:23;50.60;;;20.30;;
57790;SDS011;43621;51.798;21.588;2024-02-16T04:12:24;39.80;;;16.90;;
57790;SDS011;43621;51.798;21.588;2024-02-16T04:16:26;30.30;;;13.90;;
57790;SDS011;43621;51.798;21.588;2024-02-16T04:20:29;33.30;;;14.20;;
57790;SDS011;43621;51.798;21.588;2024-02-16T04:24:30;27.80;;;13.20;;
57790;SDS011;43621;51.798;21.588;2024-02-16T04:28:32;31.50;;;13.00;;
57790;SDS011;43621;51.798;21.588;2024-02-16T04:32:33;28.90;;;14.00;;
57790;SDS011;43621;51.798;21.588;2024-02-16T04:36:35;37.60;;;16.90;;
57790;SDS011;43621;51.798;21.588;2024-02-16T04:40:36;29.80;;;14.70;;
57790;SDS011;43621;51.798;21.588;2024-02-16T04:44:38;34.10;;;16.20;;
57790;SDS011;43621;51.798;21.588;2024-02-16T04:48:40;27.00;;;15.70;;
57790;SDS011;43621;51.798;21.588;2024-02-16T04:52:41;34.30;;;18.20;;
57790;SDS011;43621;51.798;21.588;2024-02-16T04:56:45;38.90;;;19.60;;
57790;SDS011;43621;51.798;21.588;2024-02-16T05:00:46;25.30;;;14.00;;
57790;SDS011;43621;51.798;21.588;2024-02-16T05:04:48;41.30;;;19.10;;
57790;SDS011;43621;51.798;21.588;2024-02-16T05:08:50;37.40;;;18.30;;
57790;SDS011;43621;51.798;21.588;2024-02-16T05:12:51;51.50;;;19.80;;
57790;SDS011;43621;51.798;21.588;2024-02-16T05:16:53;33.60;;;15.80;;
57790;SDS011;43621;51.798;21.588;2024-02-16T05:20:54;29.00;;;16.70;;
57790;SDS011;43621;51.798;21.588;2024-02-16T05:24:56;28.80;;;18.50;;
57790;SDS011;43621;51.798;21.588;2024-02-16T05:28:57;28.10;;;15.00;;
57790;SDS011;43621;51.798;21.588;2024-02-16T05:32:59;33.50;;;20.10;;
57790;SDS011;43621;51.798;21.588;2024-02-16T05:37:00;70.70;;;35.00;;
57790;SDS011;43621;51.798;21.588;2024-02-16T05:41:02;79.70;;;32.10;;
57790;SDS011;43621;51.798;21.588;2024-02-16T05:45:04;95.30;;;39.00;;
57790;SDS011;43621;51.798;21.588;2024-02-16T05:49:07;60.40;;;27.70;;
57790;SDS011;43621;51.798;21.588;2024-02-16T05:53:09;54.90;;;23.10;;
57790;SDS011;43621;51.798;21.588;2024-02-16T05:57:11;47.60;;;21.20;;
57790;SDS011;43621;51.798;21.588;2024-02-16T06:01:13;38.90;;;18.50;;
57790;SDS011;43621;51.798;21.588;2024-02-16T06:05:16;54.90;;;30.20;;
57790;SDS011;43621;51.798;21.588;2024-02-16T06:09:17;64.80;;;32.00;;
57790;SDS011;43621;51.798;21.588;2024-02-16T06:13:19;51.50;;;26.70;;
57790;SDS011;43621;51.798;21.588;2024-02-16T06:17:22;50.20;;;24.60;;
57790;SDS011;43621;51.798;21.588;2024-02-16T06:21:23;46.30;;;22.80;;
57790;SDS011;43621;51.798;21.588;2024-02-16T06:25:25;78.10;;;31.50;;
57790;SDS011;43621;51.798;21.588;2024-02-16T06:29:26;93.10;;;37.30;;
57790;SDS011;43621;51.798;21.588;2024-02-16T06:33:28;70.30;;;29.20;;
57790;SDS011;43621;51.798;21.588;2024-02-16T06:37:29;105.10;;;32.60;;
57790;SDS011;43621;51.798;21.588;2024-02-16T06:41:32;48.50;;;25.20;;
57790;SDS011;43621;51.798;21.588;2024-02-16T06:45:34;46.40;;;25.10;;
57790;SDS011;43621;51.798;21.588;2024-02-16T06:49:35;55.00;;;25.90;;
57790;SDS011;43621;51.798;21.588;2024-02-16T06:53:37;31.00;;;18.50;;
57790;SDS011;43621;51.798;21.588;2024-02-16T06:57:38;44.30;;;26.40;;
57790;SDS011;43621;51.798;21.588;2024-02-16T07:01:40;73.30;;;42.40;;
57790;SDS011;43621;51.798;21.588;2024-02-16T07:05:41;167.60;;;99.00;;
57790;SDS011;43621;51.798;21.588;2024-02-16T07:09:43;95.10;;;63.80;;
57790;SDS011;43621;51.798;21.588;2024-02-16T07:13:46;30.00;;;17.60;;
57790;SDS011;43621;51.798;21.588;2024-02-16T07:17:47;22.60;;;14.20;;
57790;SDS011;43621;51.798;21.588;2024-02-16T07:21:49;20.10;;;13.30;;
57790;SDS011;43621;51.798;21.588;2024-02-16T07:25:51;24.10;;;15.40;;
57790;SDS011;43621;51.798;21.588;2024-02-16T07:29:52;83.10;;;26.60;;
57790;SDS011;43621;51.798;21.588;2024-02-16T07:33:54;167.00;;;100.00;;
57790;SDS011;43621;51.798;21.588;2024-02-16T07:37:55;59.60;;;37.20;;
57790;SDS011;43621;51.798;21.588;2024-02-16T07:41:57;23.50;;;15.50;;
57790;SDS011;43621;51.798;21.588;2024-02-16T07:45:58;19.80;;;15.00;;
57790;SDS011;43621;51.798;21.588;2024-02-16T07:50:00;18.50;;;13.80;;
57790;SDS011;43621;51.798;21.588;2024-02-16T07:54:02;19.50;;;13.10;;
57790;SDS011;43621;51.798;21.588;2024-02-16T07:58:04;20.50;;;14.90;;
57790;SDS011;43621;51.798;21.588;2024-02-16T08:02:06;18.70;;;13.50;;
57790;SDS011;43621;51.798;21.588;2024-02-16T08:06:08;21.20;;;15.20;;
57790;SDS011;43621;51.798;21.588;2024-02-16T08:10:10;18.30;;;13.50;;
57790;SDS011;43621;51.798;21.588;2024-02-16T08:14:12;23.10;;;14.10;;
57790;SDS011;43621;51.798;21.588;2024-02-16T08:18:13;23.20;;;16.80;;
57790;SDS011;43621;51.798;21.588;2024-02-16T08:22:15;19.20;;;14.10;;
57790;SDS011;43621;51.798;21.588;2024-02-16T08:26:16;38.10;;;34.20;;
57790;SDS011;43621;51.798;21.588;2024-02-16T08:30:18;17.20;;;14.90;;
57790;SDS011;43621;51.798;21.588;2024-02-16T08:34:20;23.10;;;15.80;;
57790;SDS011;43621;51.798;21.588;2024-02-16T08:38:22;19.50;;;13.50;;
57790;SDS011;43621;51.798;21.588;2024-02-16T08:42:23;18.00;;;15.00;;
57790;SDS011;43621;51.798;21.588;2024-02-16T08:46:25;19.30;;;15.40;;
57790;SDS011;43621;51.798;21.588;2024-02-16T08:50:26;20.30;;;13.90;;
57790;SDS011;43621;51.798;21.588;2024-02-16T08:54:28;26.80;;;19.40;;
57790;SDS011;43621;51.798;21.588;2024-02-16T08:58:29;21.30;;;15.20;;
57790;SDS011;43621;51.798;21.588;2024-02-16T09:02:31;18.80;;;14.50;;
57790;SDS011;43621;51.798;21.588;2024-02-16T09:06:32;26.40;;;18.80;;
57790;SDS011;43621;51.798;21.588;2024-02-16T09:10:36;22.10;;;15.10;;
57790;SDS011;43621;51.798;21.588;2024-02-16T09:14:37;16.60;;;13.80;;
57790;SDS011;43621;51.798;21.588;2024-02-16T09:18:39;25.70;;;19.70;;
57790;SDS011;43621;51.798;21.588;2024-02-16T09:22:41;29.00;;;20.50;;
57790;SDS011;43621;51.798;21.588;2024-02-16T09:26:43;21.80;;;14.90;;
57790;SDS011;43621;51.798;21.588;2024-02-16T09:30:47;21.30;;;15.10;;
57790;SDS011;43621;51.798;21.588;2024-02-16T09:34:49;22.00;;;15.70;;
57790;SDS011;43621;51.798;21.588;2024-02-16T09:38:51;26.90;;;17.40;;
57790;SDS011;43621;51.798;21.588;2024-02-16T09:42:52;25.00;;;14.90;;
57790;SDS011;43621;51.798;21.588;2024-02-16T09:46:54;23.20;;;14.00;;
57790;SDS011;43621;51.798;21.588;2024-02-16T09:50:56;20.30;;;15.50;;
57790;SDS011;43621;51.798;21.588;2024-02-16T09:55:02;23.10;;;16.10;;
57790;SDS011;43621;51.798;21.588;2024-02-16T09:59:03;54.40;;;26.80;;
57790;SDS011;43621;51.798;21.588;2024-02-16T10:03:05;49.90;;;24.60;;
57790;SDS011;43621;51.798;21.588;2024-02-16T10:07:07;37.20;;;20.20;;
57790;SDS011;43621;51.798;21.588;2024-02-16T10:11:09;25.70;;;16.60;;
57790;SDS011;43621;51.798;21.588;2024-02-16T10:15:10;41.50;;;22.00;;
57790;SDS011;43621;51.798;21.588;2024-02-16T10:19:12;28.30;;;16.60;;
57790;SDS011;43621;51.798;21.588;2024-02-16T10:23:13;26.60;;;14.00;;
57790;SDS011;43621;51.798;21.588;2024-02-16T10:27:16;20.50;;;12.20;;
57790;SDS011;43621;51.798;21.588;2024-02-16T10:31:18;20.70;;;12.20;;
57790;SDS011;43621;51.798;21.588;2024-02-16T10:35:29;19.60;;;13.00;;
57790;SDS011;43621;51.798;21.588;2024-02-16T10:39:31;22.60;;;14.10;;
57790;SDS011;43621;51.798;21.588;2024-02-16T10:43:33;17.50;;;11.10;;
57790;SDS011;43621;51.798;21.588;2024-02-16T10:47:35;21.30;;;13.00;;
57790;SDS011;43621;51.798;21.588;2024-02-16T10:51:37;27.70;;;16.10;;
57790;SDS011;43621;51.798;21.588;2024-02-16T10:55:42;19.30;;;13.10;;
57790;SDS011;43621;51.798;21.588;2024-02-16T10:59:45;34.70;;;14.30;;
57790;SDS011;43621;51.798;21.588;2024-02-16T11:04:00;18.40;;;13.00;;
57790;SDS011;43621;51.798;21.588;2024-02-16T11:08:03;15.80;;;10.30;;
57790;SDS011;43621;51.798;21.588;2024-02-16T11:12:07;18.20;;;12.40;;
57790;SDS011;43621;51.798;21.588;2024-02-16T11:16:10;15.50;;;11.10;;
57790;SDS011;43621;51.798;21.588;2024-02-16T11:20:12;18.80;;;10.90;;
57790;SDS011;43621;51.798;21.588;2024-02-16T11:24:14;17.10;;;10.70;;
57790;SDS011;43621;51.798;21.588;2024-02-16T11:28:15;15.90;;;10.90;;
57790;SDS011;43621;51.798;21.588;2024-02-16T11:32:18;18.60;;;11.00;;
57790;SDS011;43621;51.798;21.588;2024-02-16T11:36:20;16.80;;;11.40;;
57790;SDS011;43621;51.798;21.588;2024-02-16T11:40:25;15.70;;;10.30;;
57790;SDS011;43621;51.798;21.588;2024-02-16T11:44:27;22.00;;;12.20;;
57790;SDS011;43621;51.798;21.588;2024-02-16T11:48:29;17.00;;;10.30;;
57790;SDS011;43621;51.798;21.588;2024-02-16T11:52:33;17.10;;;10.40;;
57790;SDS011;43621;51.798;21.588;2024-02-16T11:56:35;16.70;;;11.30;;
57790;SDS011;43621;51.798;21.588;2024-02-16T12:00:40;15.30;;;9.90;;
57790;SDS011;43621;51.798;21.588;2024-02-16T12:04:42;14.90;;;10.20;;
57790;SDS011;43621;51.798;21.588;2024-02-16T12:08:44;19.20;;;11.40;;
57790;SDS011;43621;51.798;21.588;2024-02-16T12:12:47;18.50;;;10.70;;
57790;SDS011;43621;51.798;21.588;2024-02-16T12:16:49;17.40;;;11.40;;
57790;SDS011;43621;51.798;21.588;2024-02-16T12:24:59;18.70;;;12.00;;
57790;SDS011;43621;51.798;21.588;2024-02-16T12:29:01;17.70;;;10.60;;
57790;SDS011;43621;51.798;21.588;2024-02-16T12:33:02;15.30;;;10.50;;
57790;SDS011;43621;51.798;21.588;2024-02-16T12:37:05;20.30;;;11.40;;
57790;SDS011;43621;51.798;21.588;2024-02-16T12:41:08;49.60;;;23.10;;
57790;SDS011;43621;51.798;21.588;2024-02-16T12:45:10;32.20;;;17.90;;
57790;SDS011;43621;51.798;21.588;2024-02-16T12:49:11;36.20;;;20.70;;
57790;SDS011;43621;51.798;21.588;2024-02-16T12:53:13;18.80;;;12.70;;
57790;SDS011;43621;51.798;21.588;2024-02-16T12:57:15;19.60;;;11.70;;
57790;SDS011;43621;51.798;21.588;2024-02-16T13:01:16;15.90;;;10.50;;
57790;SDS011;43621;51.798;21.588;2024-02-16T13:05:19;18.10;;;10.70;;
57790;SDS011;43621;51.798;21.588;2024-02-16T13:09:20;18.30;;;10.90;;
57790;SDS011;43621;51.798;21.588;2024-02-16T13:13:22;19.50;;;10.70;;
57790;SDS011;43621;51.798;21.588;2024-02-16T13:17:24;16.70;;;10.70;;
57790;SDS011;43621;51.798;21.588;2024-02-16T13:21:41;17.00;;;11.10;;
57790;SDS011;43621;51.798;21.588;2024-02-16T13:25:43;22.90;;;11.40;;
57790;SDS011;43621;51.798;21.588;2024-02-16T13:29:44;19.20;;;11.60;;
57790;SDS011;43621;51.798;21.588;2024-02-16T13:33:46;21.20;;;12.20;;
57790;SDS011;43621;51.798;21.588;2024-02-16T13:37:47;22.30;;;12.20;;
57790;SDS011;43621;51.798;21.588;2024-02-16T13:41:49;31.20;;;13.80;;
57790;SDS011;43621;51.798;21.588;2024-02-16T13:45:53;30.40;;;18.50;;
57790;SDS011;43621;51.798;21.588;2024-02-16T13:49:55;21.70;;;12.90;;
57790;SDS011;43621;51.798;21.588;2024-02-16T13:53:58;21.10;;;9.90;;
57790;SDS011;43621;51.798;21.588;2024-02-16T13:57:59;15.60;;;9.40;;
57790;SDS011;43621;51.798;21.588;2024-02-16T14:02:01;26.40;;;12.90;;
57790;SDS011;43621;51.798;21.588;2024-02-16T14:06:03;19.80;;;10.60;;
57790;SDS011;43621;51.798;21.588;2024-02-16T14:10:07;16.50;;;9.70;;
57790;SDS011;43621;51.798;21.588;2024-02-16T14:14:09;17.60;;;10.50;;
57790;SDS011;43621;51.798;21.588;2024-02-16T14:18:10;25.20;;;10.20;;
57790;SDS011;43621;51.798;21.588;2024-02-16T14:22:12;25.20;;;19.90;;
57790;SDS011;43621;51.798;21.588;2024-02-16T14:26:13;26.40;;;14.90;;
57790;SDS011;43621;51.798;21.588;2024-02-16T14:30:15;28.20;;;15.20;;
57790;SDS011;43621;51.798;21.588;2024-02-16T14:34:16;35.30;;;16.70;;
57790;SDS011;43621;51.798;21.588;2024-02-16T14:38:18;33.80;;;16.60;;
57790;SDS011;43621;51.798;21.588;2024-02-16T14:42:19;33.20;;;16.40;;
57790;SDS011;43621;51.798;21.588;2024-02-16T14:46:24;22.40;;;17.30;;
57790;SDS011;43621;51.798;21.588;2024-02-16T14:50:27;26.20;;;14.60;;
57790;SDS011;43621;51.798;21.588;2024-02-16T14:54:28;25.90;;;16.10;;
57790;SDS011;43621;51.798;21.588;2024-02-16T14:58:30;40.20;;;23.10;;
57790;SDS011;43621;51.798;21.588;2024-02-16T15:02:32;81.10;;;56.10;;
57790;SDS011;43621;51.798;21.588;2024-02-16T15:06:34;54.80;;;33.80;;
57790;SDS011;43621;51.798;21.588;2024-02-16T15:10:36;72.00;;;44.00;;
57790;SDS011;43621;51.798;21.588;2024-02-16T15:14:38;45.20;;;27.60;;
57790;SDS011;43621;51.798;21.588;2024-02-16T15:18:39;39.30;;;25.20;;
57790;SDS011;43621;51.798;21.588;2024-02-16T15:22:41;33.60;;;20.20;;
57790;SDS011;43621;51.798;21.588;2024-02-16T15:26:42;38.30;;;22.60;;
57790;SDS011;43621;51.798;21.588;2024-02-16T15:30:44;33.80;;;18.60;;
57790;SDS011;43621;51.798;21.588;2024-02-16T15:34:45;48.70;;;21.80;;
57790;SDS011;43621;51.798;21.588;2024-02-16T15:38:50;32.10;;;18.60;;
57790;SDS011;43621;51.798;21.588;2024-02-16T15:42:59;31.90;;;19.70;;
57790;SDS011;43621;51.798;21.588;2024-02-16T15:47:02;40.10;;;20.60;;
57790;SDS011;43621;51.798;21.588;2024-02-16T15:51:04;44.50;;;22.90;;
57790;SDS011;43621;51.798;21.588;2024-02-16T15:55:08;47.00;;;24.30;;
57790;SDS011;43621;51.798;21.588;2024-02-16T15:59:10;46.50;;;28.10;;
57790;SDS011;43621;51.798;21.588;2024-02-16T16:03:11;70.10;;;29.70;;
57790;SDS011;43621;51.798;21.588;2024-02-16T16:07:13;75.40;;;35.00;;
57790;SDS011;43621;51.798;21.588;2024-02-16T16:11:15;66.50;;;38.90;;
57790;SDS011;43621;51.798;21.588;2024-02-16T16:15:17;65.70;;;37.70;;
57790;SDS011;43621;51.798;21.588;2024-02-16T16:19:19;63.50;;;38.00;;
57790;SDS011;43621;51.798;21.588;2024-02-16T16:23:23;74.80;;;41.50;;
57790;SDS011;43621;51.798;21.588;2024-02-16T16:27:24;98.30;;;50.80;;
57790;SDS011;43621;51.798;21.588;2024-02-16T16:31:26;121.90;;;65.70;;
57790;SDS011;43621;51.798;21.588;2024-02-16T16:35:27;132.00;;;74.00;;
57790;SDS011;43621;51.798;21.588;2024-02-16T16:39:29;160.60;;;97.50;;
57790;SDS011;43621;51.798;21.588;2024-02-16T16:43:30;116.00;;;64.20;;
57790;SDS011;43621;51.798;21.588;2024-02-16T16:47:32;115.30;;;60.40;;
57790;SDS011;43621;51.798;21.588;2024-02-16T16:51:33;109.40;;;60.10;;
57790;SDS011;43621;51.798;21.588;2024-02-16T16:55:35;122.10;;;63.90;;
57790;SDS011;43621;51.798;21.588;2024-02-16T16:59:36;109.60;;;56.60;;
57790;SDS011;43621;51.798;21.588;2024-02-16T17:03:38;92.90;;;51.20;;
57790;SDS011;43621;51.798;21.588;2024-02-16T17:07:40;73.40;;;40.30;;
57790;SDS011;43621;51.798;21.588;2024-02-16T17:11:41;76.20;;;43.10;;
57790;SDS011;43621;51.798;21.588;2024-02-16T17:15:43;64.20;;;37.10;;
57790;SDS011;43621;51.798;21.588;2024-02-16T17:19:44;56.40;;;34.20;;
57790;SDS011;43621;51.798;21.588;2024-02-16T17:23:46;75.90;;;42.90;;
57790;SDS011;43621;51.798;21.588;2024-02-16T17:27:50;61.80;;;36.40;;
57790;SDS011;43621;51.798;21.588;2024-02-16T17:31:52;79.60;;;45.70;;
57790;SDS011;43621;51.798;21.588;2024-02-16T17:35:53;69.50;;;40.20;;
57790;SDS011;43621;51.798;21.588;2024-02-16T17:39:55;66.70;;;39.30;;
57790;SDS011;43621;51.798;21.588;2024-02-16T17:43:57;85.10;;;46.80;;
57790;SDS011;43621;51.798;21.588;2024-02-16T17:47:59;124.70;;;65.20;;
57790;SDS011;43621;51.798;21.588;2024-02-16T17:52:00;90.20;;;46.90;;
57790;SDS011;43621;51.798;21.588;2024-02-16T17:56:02;64.10;;;35.70;;
57790;SDS011;43621;51.798;21.588;2024-02-16T18:00:05;69.90;;;39.70;;
57790;SDS011;43621;51.798;21.588;2024-02-16T18:04:08;70.10;;;39.40;;
57790;SDS011;43621;51.798;21.588;2024-02-16T18:08:10;78.40;;;45.40;;
57790;SDS011;43621;51.798;21.588;2024-02-16T18:12:12;73.80;;;41.50;;
57790;SDS011;43621;51.798;21.588;2024-02-16T18:16:18;81.30;;;45.80;;
57790;SDS011;43621;51.798;21.588;2024-02-16T18:20:24;95.00;;;51.10;;
57790;SDS011;43621;51.798;21.588;2024-02-16T18:24:26;107.40;;;60.60;;
57790;SDS011;43621;51.798;21.588;2024-02-16T18:28:27;128.20;;;66.20;;
57790;SDS011;43621;51.798;21.588;2024-02-16T18:32:29;73.40;;;41.40;;
57790;SDS011;43621;51.798;21.588;2024-02-16T18:36:31;73.70;;;38.40;;
57790;SDS011;43621;51.798;21.588;2024-02-16T18:40:32;68.00;;;36.50;;
57790;SDS011;43621;51.798;21.588;2024-02-16T18:44:34;70.80;;;39.20;;
57790;SDS011;43621;51.798;21.588;2024-02-16T18:48:37;72.90;;;39.40;;
57790;SDS011;43621;51.798;21.588;2024-02-16T18:52:40;79.10;;;39.10;;
57790;SDS011;43621;51.798;21.588;2024-02-16T18:56:41;69.60;;;38.00;;
57790;SDS011;43621;51.798;21.588;2024-02-16T19:00:44;63.30;;;35.10;;
57790;SDS011;43621;51.798;21.588;2024-02-16T19:04:45;69.20;;;35.10;;
57790;SDS011;43621;51.798;21.588;2024-02-16T19:08:47;74.40;;;37.70;;
57790;SDS011;43621;51.798;21.588;2024-02-16T19:12:48;73.90;;;38.80;;
57790;SDS011;43621;51.798;21.588;2024-02-16T19:16:50;93.00;;;44.50;;
57790;SDS011;43621;51.798;21.588;2024-02-16T19:20:52;96.70;;;49.40;;
57790;SDS011;43621;51.798;21.588;2024-02-16T19:24:57;108.90;;;52.10;;
57790;SDS011;43621;51.798;21.588;2024-02-16T19:28:59;91.00;;;43.80;;
57790;SDS011;43621;51.798;21.588;2024-02-16T19:33:01;83.40;;;40.50;;
57790;SDS011;43621;51.798;21.588;2024-02-16T19:37:15;79.80;;;37.80;;
57790;SDS011;43621;51.798;21.588;2024-02-16T19:41:31;87.70;;;45.00;;
57790;SDS011;43621;51.798;21.588;2024-02-16T19:45:33;81.30;;;41.10;;
57790;SDS011;43621;51.798;21.588;2024-02-16T19:49:35;74.20;;;37.40;;
57790;SDS011;43621;51.798;21.588;2024-02-16T19:53:36;87.10;;;38.60;;
57790;SDS011;43621;51.798;21.588;2024-02-16T19:57:38;62.50;;;31.70;;
57790;SDS011;43621;51.798;21.588;2024-02-16T20:01:39;82.80;;;38.30;;
57790;SDS011;43621;51.798;21.588;2024-02-16T20:05:42;76.70;;;41.10;;
57790;SDS011;43621;51.798;21.588;2024-02-16T20:09:44;84.20;;;42.20;;
57790;SDS011;43621;51.798;21.588;2024-02-16T20:13:45;74.90;;;36.20;;
57790;SDS011;43621;51.798;21.588;2024-02-16T20:17:51;75.90;;;38.40;;
57790;SDS011;43621;51.798;21.588;2024-02-16T20:21:52;77.00;;;38.60;;
57790;SDS011;43621;51.798;21.588;2024-02-16T20:25:54;86.60;;;41.50;;
57790;SDS011;43621;51.798;21.588;2024-02-16T20:29:55;78.40;;;38.80;;
57790;SDS011;43621;51.798;21.588;2024-02-16T20:33:57;82.20;;;41.00;;
57790;SDS011;43621;51.798;21.588;2024-02-16T20:38:01;74.90;;;38.50;;
57790;SDS011;43621;51.798;21.588;2024-02-16T20:42:04;65.50;;;34.30;;
57790;SDS011;43621;51.798;21.588;2024-02-16T20:46:06;83.30;;;38.80;;
57790;SDS011;43621;51.798;21.588;2024-02-16T20:50:09;72.40;;;39.30;;
57790;SDS011;43621;51.798;21.588;2024-02-16T20:54:11;62.60;;;32.80;;
57790;SDS011;43621;51.798;21.588;2024-02-16T20:58:12;67.80;;;35.00;;
57790;SDS011;43621;51.798;21.588;2024-02-16T21:02:14;66.60;;;34.40;;
57790;SDS011;43621;51.798;21.588;2024-02-16T21:06:15;67.60;;;35.90;;
57790;SDS011;43621;51.798;21.588;2024-02-16T21:10:17;54.60;;;30.90;;
57790;SDS011;43621;51.798;21.588;2024-02-16T21:14:19;64.10;;;32.00;;
57790;SDS011;43621;51.798;21.588;2024-02-16T21:18:20;57.00;;;31.00;;
57790;SDS011;43621;51.798;21.588;2024-02-16T21:22:22;61.00;;;30.40;;
57790;SDS011;43621;51.798;21.588;2024-02-16T21:26:23;60.10;;;30.40;;
57790;SDS011;43621;51.798;21.588;2024-02-16T21:30:25;68.20;;;35.70;;
57790;SDS011;43621;51.798;21.588;2024-02-16T21:34:26;69.60;;;34.80;;
57790;SDS011;43621;51.798;21.588;2024-02-16T21:38:28;69.00;;;33.80;;
57790;SDS011;43621;51.798;21.588;2024-02-16T21:42:29;61.70;;;32.40;;
57790;SDS011;43621;51.798;21.588;2024-02-16T21:46:32;59.70;;;31.90;;
57790;SDS011;43621;51.798;21.588;2024-02-16T21:50:34;59.40;;;30.90;;
57790;SDS011;43621;51.798;21.588;2024-02-16T21:54:36;55.90;;;29.60;;
57790;SDS011;43621;51.798;21.588;2024-02-16T21:58:39;54.50;;;28.50;;
57790;SDS011;43621;51.798;21.588;2024-02-16T22:02:42;57.10;;;29.20;;
57790;SDS011;43621;51.798;21.588;2024-02-16T22:06:43;55.00;;;28.00;;
57790;SDS011;43621;51.798;21.588;2024-02-16T22:10:46;56.60;;;28.20;;
57790;SDS011;43621;51.798;21.588;2024-02-16T22:14:47;54.50;;;28.20;;
57790;SDS011;43621;51.798;21.588;2024-02-16T22:18:49;49.00;;;27.20;;
57790;SDS011;43621;51.798;21.588;2024-02-16T22:22:51;49.40;;;26.80;;
57790;SDS011;43621;51.798;21.588;2024-02-16T22:26:53;51.80;;;26.90;;
57790;SDS011;43621;51.798;21.588;2024-02-16T22:30:54;50.40;;;26.10;;
57790;SDS011;43621;51.798;21.588;2024-02-16T22:34:56;52.70;;;29.40;;
57790;SDS011;43621;51.798;21.588;2024-02-16T22:38:58;55.70;;;29.70;;
57790;SDS011;43621;51.798;21.588;2024-02-16T22:43:01;46.60;;;25.00;;
57790;SDS011;43621;51.798;21.588;2024-02-16T22:47:05;48.10;;;25.10;;
57790;SDS011;43621;51.798;21.588;2024-02-16T22:51:06;48.00;;;25.00;;
57790;SDS011;43621;51.798;21.588;2024-02-16T22:55:08;49.80;;;25.60;;
57790;SDS011;43621;51.798;21.588;2024-02-16T22:59:09;48.00;;;24.60;;
57790;SDS011;43621;51.798;21.588;2024-02-16T23:03:11;51.80;;;24.60;;
57790;SDS011;43621;51.798;21.588;2024-02-16T23:07:12;48.00;;;24.40;;
57790;SDS011;43621;51.798;21.588;2024-02-16T23:11:14;51.80;;;25.00;;
57790;SDS011;43621;51.798;21.588;2024-02-16T23:15:17;49.30;;;25.00;;
57790;SDS011;43621;51.798;21.588;2024-02-16T23:19:20;55.00;;;24.50;;